Latest Weather Observations for Shark Bay Airport

IDW60801

Issued at 6:03 am WST Tuesday 26 September 2017 (issued every 30 minutes, with the page automatically refreshed every 10 minutes)

About weather observations | Map of weather stations | Latest weather observations for WA | Other Formats
Station Details ID: 006105 Name: SHARK BAY AIRPORT Lat: -25.89 Lon: 113.58 Height: 33.8 m
Data from the previous 72 hours. | See also: Recent months at Shark Bay Airport
Date/Time
WST
Temp
°C
App
Temp
°C
Dew
Point
°C
Rel
Hum
%
Delta-T
°C
Wind Press
QNH
hPa
Press
MSL
hPa
Rain since
9am
mm
Dir  Spd
km/h
Gust
km/h
Spd
kts
Gust
kts
26/06:00am 11.6 9.8 7.9 78 1.8 E 7 7 4 4 1013.2 1013.1 0.0
26/05:30am 13.3 11.3 8.6 73 2.4 S 9 13 5 7 1012.8 1012.7 0.0
26/05:00am 13.3 10.6 8.8 74 2.3 S 13 15 7 8 1012.5 1012.4 0.0
26/04:30am 12.9 10.9 8.6 75 2.1 SW 9 13 5 7 1012.3 1012.2 0.0
26/04:00am 13.7 11.0 9.0 73 2.4 SSW 13 17 7 9 1012.1 1012.0 0.0
26/03:30am 13.2 10.6 9.3 77 2.0 SW 13 17 7 9 1012.0 1011.9 0.0
26/03:00am 12.3 10.1 7.8 74 2.2 WSW 9 11 5 6 1011.9 1011.8 0.0
26/02:30am 13.3 10.5 8.6 73 2.4 S 13 15 7 8 1012.0 1011.9 0.0
26/02:00am 13.9 10.9 9.3 74 2.3 SSW 15 17 8 9 1012.1 1012.0 0.0
26/01:30am 13.0 10.6 8.5 74 2.2 S 11 13 6 7 1012.1 1012.0 0.0
26/01:00am 14.4 11.7 9.0 70 2.8 SSW 13 17 7 9 1012.1 1012.0 0.0
26/12:30am 15.2 12.5 10.4 73 2.5 SW 15 20 8 11 1012.2 1012.1 0.0
26/12:00am 12.7 10.5 7.8 72 2.4 SW 9 11 5 6 1012.2 1012.1 0.0
 
Date/Time
WST
Temp
°C
App
Temp
°C
Dew
Point
°C
Rel
Hum
%
Delta-T
°C
Wind Press
QNH
hPa
Press
MSL
hPa
Rain since
9am
mm
Dir  Spd
km/h
Gust
km/h
Spd
kts
Gust
kts
25/11:30pm 13.6 11.4 7.8 68 2.9 SW 9 11 5 6 1012.3 1012.2 0.0
25/11:00pm 15.0 12.2 8.5 65 3.3 SSW 13 17 7 9 1012.4 1012.3 0.0
25/10:30pm 14.8 13.9 10.8 77 2.1 WSW 6 9 3 5 1012.5 1012.4 0.0
25/10:00pm 15.4 13.3 11.0 75 2.3 W 13 19 7 10 1012.6 1012.5 0.0
25/09:30pm 16.0 13.7 9.0 63 3.6 SSW 11 15 6 8 1012.5 1012.4 0.0
25/09:00pm 16.0 12.4 8.5 61 3.8 SSW 17 20 9 11 1012.3 1012.2 0.0
25/08:30pm 16.3 12.8 8.8 61 3.9 SSW 17 20 9 11 1012.2 1012.1 0.0
25/08:00pm 16.3 13.2 8.8 61 3.9 SSW 15 20 8 11 1011.9 1011.8 0.0
25/07:30pm 16.5 13.1 9.2 62 3.8 SSW 17 22 9 12 1011.6 1011.5 0.0
25/07:00pm 16.7 12.6 8.7 59 4.1 SSW 20 26 11 14 1011.3 1011.2 0.0
25/06:30pm 17.2 13.0 7.5 53 4.9 SW 19 30 10 16 1011.1 1011.0 0.0
25/06:00pm 18.1 13.1 8.1 52 5.1 SSW 24 32 13 17 1010.8 1010.7 0.0
25/05:30pm 18.9 13.5 8.0 49 5.6 SW 26 35 14 19 1010.5 1010.4 0.0
25/05:00pm 19.5 14.1 8.2 48 5.9 SW 26 33 14 18 1010.3 1010.2 0.0
25/04:30pm 19.9 14.3 8.6 48 5.9 SW 28 37 15 20 1010.2 1010.1 0.0
25/04:00pm 19.7 13.9 8.1 47 6.0 SW 28 35 15 19 1010.3 1010.2 0.0
25/03:30pm 19.5 14.8 10.5 56 4.9 WSW 26 41 14 22 1010.2 1010.1 0.0
25/03:00pm 20.4 15.6 9.0 48 6.0 W 24 32 13 17 1010.1 1010.0 0.0
25/02:30pm 21.2 16.7 10.1 49 6.0 W 24 37 13 20 1010.1 1010.0 0.0
25/02:00pm 19.9 14.3 8.9 49 5.8 WSW 28 41 15 22 1010.3 1010.2 0.0
25/01:30pm 20.4 14.2 9.9 51 5.6 W 33 48 18 26 1010.3 1010.2 0.0
25/01:00pm 20.5 13.4 10.9 54 5.3 W 39 54 21 29 1010.5 1010.4 0.0
25/12:30pm 21.1 15.2 9.0 46 6.4 WSW 30 43 16 23 1010.6 1010.5 0.0
25/12:00pm 21.1 15.0 10.3 50 5.9 WSW 33 44 18 24 1010.7 1010.6 0.0
25/11:30am 21.7 14.3 6.8 38 7.6 W 35 46 19 25 1010.9 1010.8 0.0
25/11:00am 21.0 14.1 7.3 41 7.0 W 33 44 18 24 1011.0 1010.9 0.0
25/10:30am 20.6 13.2 8.3 45 6.4 W 37 50 20 27 1011.2 1011.1 0.0
25/10:00am 20.0 14.4 8.7 48 5.9 W 28 50 15 27 1011.2 1011.1 0.0
25/09:30am 19.3 14.2 10.6 57 4.7 W 28 37 15 20 1011.4 1011.3 0.0
25/09:00am 16.9 13.2 12.6 76 2.4 W 24 39 13 21 1011.4 1011.3 6.8
25/08:30am 14.5 11.1 12.4 87 1.1 WNW 22 32 12 17 1011.3 1011.2 6.8
25/08:00am 14.5 8.8 9.9 74 2.4 W 30 41 16 22 1011.3 1011.2 6.0
25/07:30am 17.1 10.4 8.0 55 4.6 W 33 43 18 23 1010.7 1010.6 5.6
25/07:00am 15.8 11.8 10.6 71 2.8 WNW 22 30 12 16 1010.5 1010.4 5.6
25/06:30am 14.7 9.4 9.7 72 2.6 W 28 35 15 19 1010.4 1010.3 5.6
25/06:00am 16.0 10.1 9.0 63 3.6 W 30 46 16 25 1010.1 1010.0 5.6
25/05:57am 16.1 10.6 9.1 63 3.6 W 28 46 15 25 1010.1 1010.0 5.6
25/05:30am 16.0 9.7 7.2 56 4.4 W 30 41 16 22 1010.1 1010.0 5.6
25/05:00am 16.2 9.3 7.2 55 4.5 W 33 46 18 25 1010.0 1009.9 5.6
25/04:30am 16.1 9.7 7.1 55 4.5 W 30 43 16 23 1009.9 1009.8 5.6
25/04:00am 16.0 10.0 8.5 61 3.8 W 30 41 16 22 1009.8 1009.7 5.6
25/03:30am 15.9 9.5 8.6 62 3.7 W 32 46 17 25 1009.7 1009.6 5.6
25/03:10am 15.6 9.7 9.1 65 3.3 W 30 52 16 28 1009.6 1009.5 5.6
25/03:00am 15.2 9.8 9.6 69 2.9 W 28 39 15 21 1009.7 1009.6 5.6
25/02:30am 15.7 10.3 8.2 61 3.8 W 26 33 14 18 1009.8 1009.7 5.6
25/02:00am 15.9 10.6 8.4 61 3.8 W 26 35 14 19 1009.9 1009.8 5.6
25/01:40am 16.1 10.3 7.8 58 4.2 W 28 46 15 25 1009.9 1009.8 5.6
25/01:30am 16.2 9.7 8.2 59 4.1 W 32 44 17 24 1010.0 1009.9 5.6
25/01:00am 16.3 9.2 6.4 52 4.8 W 33 46 18 25 1010.0 1009.9 5.6
25/12:30am 16.3 10.4 9.0 62 3.8 W 30 39 16 21 1010.2 1010.1 5.6
25/12:00am 16.9 10.6 9.6 62 3.8 W 33 46 18 25 1010.3 1010.2 5.6
 
Date/Time
WST
Temp
°C
App
Temp
°C
Dew
Point
°C
Rel
Hum
%
Delta-T
°C
Wind Press
QNH
hPa
Press
MSL
hPa
Rain since
9am
mm
Dir  Spd
km/h
Gust
km/h
Spd
kts
Gust
kts
24/11:46pm 16.6 11.1 9.1 61 3.9 W 28 48 15 26 1010.4 1010.3 5.6
24/11:30pm 16.3 12.9 11.2 72 2.7 W 20 28 11 15 1010.5 1010.4 5.6
24/11:00pm 15.9 11.3 10.9 72 2.7 WSW 26 35 14 19 1010.8 1010.7 5.6
24/10:30pm 15.5 10.2 11.1 75 2.4 WSW 30 48 16 26 1011.0 1010.9 5.6
24/10:10pm 16.4 11.4 11.1 71 2.8 W 28 46 15 25 1011.1 1011.0 5.6
24/10:00pm 16.1 11.3 10.4 69 3.0 W 26 35 14 19 1011.1 1011.0 5.6
24/09:30pm 15.5 11.2 10.9 74 2.4 WSW 24 33 13 18 1011.3 1011.2 5.6
24/09:00pm 16.3 12.3 11.7 74 2.5 WSW 24 35 13 19 1011.1 1011.0 5.6
24/08:30pm 16.7 12.3 11.8 73 2.7 WSW 26 35 14 19 1011.0 1010.9 5.6
24/08:00pm 15.8 12.3 12.2 79 2.0 W 22 30 12 16 1010.8 1010.7 5.6
24/07:30pm 17.3 12.3 10.9 66 3.4 WSW 28 39 15 21 1010.6 1010.5 5.4
24/07:00pm 17.5 13.4 11.3 67 3.4 W 24 35 13 19 1010.3 1010.2 5.4
24/06:30pm 17.0 13.7 11.5 70 3.0 W 20 32 11 17 1010.1 1010.0 5.4
24/06:00pm 16.7 13.9 12.5 76 2.3 W 19 26 10 14 1010.2 1010.1 5.4
24/05:30pm 16.4 13.7 12.9 80 1.9 W 19 32 10 17 1010.2 1010.1 5.4
24/05:00pm 16.9 14.7 14.5 86 1.4 WSW 19 24 10 13 1010.2 1010.1 5.4
24/04:30pm 17.5 13.9 13.0 75 2.5 WSW 24 32 13 17 1010.1 1010.0 5.2
24/04:00pm 17.4 13.4 14.1 81 1.9 WSW 28 33 15 18 1010.3 1010.2 5.2
24/03:30pm 16.6 12.7 14.4 87 1.3 W 28 39 15 21 1010.5 1010.4 5.2
24/03:00pm 20.3 14.8 11.8 58 4.7 WNW 32 48 17 26 1010.2 1010.1 0.4
24/02:39pm 20.4 15.1 12.4 60 4.5 W 32 50 17 27 1010.2 1010.1 0.4
24/02:30pm 20.4 15.0 12.1 59 4.6 W 32 46 17 25 1010.3 1010.2 0.4
24/02:00pm 19.8 13.4 14.2 70 3.2 W 41 52 22 28 1010.6 1010.5 0.4
24/01:52pm 21.8 16.9 12.4 55 5.3 W 30 48 16 26 1010.5 1010.4 0.4
24/01:30pm 19.8 14.6 13.5 67 3.6 WSW 33 44 18 24 1010.7 1010.6 0.4
24/01:00pm 20.1 17.0 14.5 70 3.3 WNW 24 32 13 17 1011.1 1011.0 0.4
24/12:41pm 19.6 15.1 12.6 64 3.9 NW 28 46 15 25 1011.6 1011.5 0.2
24/12:30pm 21.1 15.6 11.7 55 5.2 W 32 43 17 23 1011.5 1011.4 0.2
24/12:00pm 22.4 19.1 11.5 50 6.1 W 20 32 11 17 1011.9 1011.8 0.2
24/11:30am 21.7 16.7 10.8 50 6.0 WNW 28 46 15 25 1012.0 1011.9 0.2
24/11:00am 22.6 19.0 11.7 50 6.1 WNW 22 33 12 18 1012.2 1012.1 0.0
24/10:30am 21.7 18.3 11.1 51 5.9 WNW 20 28 11 15 1012.4 1012.3 0.0
24/10:00am 21.5 18.7 11.2 52 5.7 W 17 26 9 14 1012.7 1012.6 0.0
24/09:30am 20.4 17.2 11.1 55 5.1 WNW 19 30 10 16 1012.9 1012.8 0.0
24/09:00am 19.8 17.1 11.6 59 4.5 W 17 26 9 14 1013.0 1012.9 0.8
24/08:30am 19.1 16.0 11.7 62 4.1 W 19 26 10 14 1013.1 1013.0 0.8
24/08:00am 17.9 15.1 11.2 65 3.6 W 17 22 9 12 1013.1 1013.0 0.8
24/07:30am 17.0 13.8 11.1 68 3.2 WSW 19 24 10 13 1012.9 1012.8 0.8
24/07:00am 15.4 13.4 11.4 77 2.2 WSW 13 19 7 10 1012.6 1012.5 0.8
24/06:30am 14.9 11.5 11.3 79 1.9 SW 20 28 11 15 1012.7 1012.6 0.8
24/06:00am 14.8 9.3 11.8 82 1.6 WSW 32 43 17 23 1012.6 1012.5 0.8
24/05:30am 15.4 11.6 11.0 75 2.3 W 22 32 12 17 1012.2 1012.1 0.8
24/05:00am 14.2 11.8 11.4 83 1.5 W 15 20 8 11 1012.2 1012.1 0.8
24/04:30am 14.1 12.0 11.1 82 1.6 W 13 15 7 8 1011.9 1011.8 0.8
24/04:00am 14.0 10.8 11.3 84 1.4 WSW 19 26 10 14 1012.2 1012.1 0.8
24/03:30am 13.7 10.9 11.4 86 1.2 WSW 17 24 9 13 1012.4 1012.3 0.8
24/03:00am 15.1 13.7 13.3 89 1.0 SW 13 19 7 10 1012.5 1012.4 0.6
24/02:30am 15.0 13.1 13.0 88 1.1 W 15 28 8 15 1012.9 1012.8 0.6
24/02:00am 14.9 13.6 12.6 86 1.3 W 11 15 6 8 1013.4 1013.3 0.2
24/01:30am 14.9 13.2 12.4 85 1.4 W 13 17 7 9 1013.5 1013.4 0.2
24/01:00am 15.5 12.2 11.7 78 2.1 W 20 28 11 15 1013.8 1013.7 0.0
24/12:30am 12.4 12.1 8.5 77 1.9 CALM 0 0 0 0 1013.9 1013.8 0.0
24/12:00am 12.6 12.3 8.5 76 2.0 CALM 0 0 0 0 1014.1 1014.0 0.0
 
Date/Time
WST
Temp
°C
App
Temp
°C
Dew
Point
°C
Rel
Hum
%
Delta-T
°C
Wind Press
QNH
hPa
Press
MSL
hPa
Rain since
9am
mm
Dir  Spd
km/h
Gust
km/h
Spd
kts
Gust
kts
23/11:30pm 13.1 12.2 9.4 78 1.9 WNW 4 9 2 5 1014.4 1014.3 0.0
23/11:00pm 13.0 12.1 9.1 77 2.0 SW 4 6 2 3 1014.8 1014.7 0.0
23/10:30pm 13.2 12.2 8.7 74 2.3 SSW 4 7 2 4 1015.1 1015.0 0.0
23/10:00pm 14.2 12.7 9.2 72 2.5 SSW 7 7 4 4 1015.3 1015.2 0.0
23/09:30pm 15.2 14.7 9.3 68 3.0 SSW 2 7 1 4 1015.5 1015.4 0.0
23/09:00pm 16.7 14.4 10.5 67 3.3 SW 13 19 7 10 1015.7 1015.6 0.0
23/08:30pm 16.2 14.1 9.8 66 3.3 SW 11 17 6 9 1015.6 1015.5 0.0
23/08:00pm 17.1 14.7 10.2 64 3.7 SW 13 15 7 8 1015.6 1015.5 0.0
23/07:30pm 17.6 14.5 10.2 62 3.9 SW 17 24 9 13 1015.6 1015.5 0.0
23/07:00pm 17.6 14.4 9.8 60 4.1 SW 17 22 9 12 1015.4 1015.3 0.0
23/06:30pm 17.9 13.6 10.8 63 3.8 SW 24 32 13 17 1015.4 1015.3 0.0
23/06:00pm 18.4 13.4 11.0 62 4.0 SW 28 37 15 20 1015.3 1015.2 0.0
23/05:30pm 18.8 14.1 10.6 59 4.4 WSW 26 35 14 19 1015.2 1015.1 0.0
23/05:00pm 19.4 13.9 10.7 57 4.7 WSW 30 41 16 22 1015.2 1015.1 0.0
23/04:30pm 21.4 16.2 9.0 45 6.6 WSW 26 35 14 19 1015.1 1015.0 0.0
23/04:00pm 22.5 18.3 9.6 44 7.0 WSW 22 30 12 16 1014.9 1014.8 0.0
23/03:30pm 21.8 17.6 9.7 46 6.5 SW 22 35 12 19 1014.7 1014.6 0.0
23/03:00pm 21.6 17.1 10.1 48 6.2 SW 24 35 13 19 1014.8 1014.7 0.0
23/02:30pm 22.1 17.5 10.9 49 6.2 WSW 26 35 14 19 1014.8 1014.7 0.0
23/02:00pm 23.4 19.1 10.8 45 7.0 WSW 24 33 13 18 1015.0 1014.9 0.0
23/01:30pm 22.8 18.1 9.2 42 7.3 WSW 24 37 13 20 1015.1 1015.0 0.0
23/01:00pm 21.7 17.8 9.3 45 6.6 WSW 20 32 11 17 1015.7 1015.6 0.0
23/12:30pm 24.5 21.2 10.8 42 7.6 W 19 30 10 16 1015.8 1015.7 0.0
23/12:00pm 23.1 18.9 7.6 37 8.1 WSW 19 30 10 16 1016.3 1016.2 0.0
23/11:30am 22.5 19.5 7.9 39 7.7 W 13 22 7 12 1016.5 1016.4 0.0
23/11:00am 21.1 16.4 9.4 47 6.2 WSW 24 30 13 16 1016.9 1016.8 0.0
23/10:30am 20.9 16.8 11.3 54 5.3 SW 24 37 13 20 1017.1 1017.0 0.0
23/10:00am 21.4 17.8 9.9 48 6.2 SW 19 30 10 16 1017.0 1016.9 0.0
23/09:30am 20.8 17.9 10.9 53 5.4 SW 17 24 9 13 1017.0 1016.9 0.0
23/09:00am 20.7 18.6 11.1 54 5.3 SSW 13 22 7 12 1016.9 1016.8 0.0
23/08:30am 19.6 16.9 11.6 60 4.4 SSW 17 24 9 13 1016.7 1016.6 0.0
23/08:00am 19.0 16.1 11.1 60 4.3 SW 17 22 9 12 1016.6 1016.5 0.0
23/07:30am 16.5 16.8 12.3 76 2.3 ESE 2 6 1 3 1016.3 1016.2 0.0
23/07:00am 16.3 16.3 11.2 72 2.7 NNE 2 7 1 4 1016.0 1015.9 0.0
23/06:30am 15.1 15.1 9.7 70 2.8 CALM 0 0 0 0 1015.7 1015.6 0.0

Other Formats:

Comma delimited format used in spreadsheet applications
http://www.bom.gov.au/fwo/IDW60801/IDW60801.95402.axf

JavaScript Object Notation format (JSON) in row-major order
http://www.bom.gov.au/fwo/IDW60801/IDW60801.95402.json